This is the latest recevied weather packets stored in our database for station/object Riedlingn. If no packets are shown the sender has not sent any weather packets the latest 10 day(s).
| Time | Temp. | Humidity | Pressure | Rain* | Wind** | Luminosity | Snow |
|---|---|---|---|---|---|---|---|
| 1787702531 | 15.56° C | 94% | 1020.4 hPa | 0 mm | - | - | - |
| 1787700730 | 15.56° C | 94% | 1020.4 hPa | 0 mm | - | - | - |
| 1787698933 | 15.56° C | 93% | 1020.2 hPa | 0 mm | - | - | - |
| 1787697131 | 16.11° C | 93% | 1020.4 hPa | 0 mm | - | - | - |
| 1787693532 | 16.67° C | 93% | 1020.2 hPa | 2.29 mm | - | - | - |
| 1787691731 | 16.67° C | 93% | 1020.3 hPa | 2.29 mm | - | - | - |
| 1787689931 | 17.22° C | 93% | 1020 hPa | 2.29 mm | - | - | - |
| 1787688130 | 17.22° C | 92% | 1020 hPa | 2.29 mm | - | - | - |
| 1787686331 | 17.22° C | 92% | 1019.9 hPa | 2.29 mm | - | - | - |
| 1787684531 | 17.78° C | 91% | 1019.7 hPa | 2.29 mm | - | - | - |
| 1787682731 | 17.78° C | 89% | 1019.4 hPa | 2.29 mm | - | - | - |
| 1787680931 | 18.33° C | 87% | 1019.4 hPa | 2.29 mm | - | - | - |
| 1787679131 | 18.89° C | 87% | 1018.9 hPa | 2.29 mm | - | - | - |
| 1787677331 | 18.89° C | 86% | 1018.8 hPa | 2.29 mm | - | - | - |
| 1787675531 | 18.89° C | 86% | 1018.8 hPa | 2.29 mm | - | - | - |
| 1787673731 | 18.89° C | 86% | 1018.4 hPa | 2.29 mm | - | - | - |
| 1787671933 | 18.33° C | 86% | 1018.6 hPa | 2.29 mm | - | - | - |
| 1787670130 | 19.44° C | 80% | 1018.2 hPa | 2.29 mm | - | - | - |
| 1787668332 | 20.56° C | 76% | 1018.2 hPa | 2.29 mm | - | - | - |
| 1787666530 | 20.56° C | 79% | 1018.1 hPa | 2.29 mm | - | - | - |
| 1787664730 | 20.56° C | 77% | 1018.1 hPa | 2.29 mm | - | - | - |
| 1787662930 | 19.44° C | 79% | 1018.1 hPa | 2.29 mm | - | - | - |
| 1787661130 | 19.44° C | 82% | 1018.1 hPa | 2.29 mm | - | - | - |
| 1787659331 | 18.33° C | 85% | 1018.3 hPa | 2.29 mm | - | - | - |
| 1787657530 | 17.22° C | 88% | 1018.3 hPa | 2.29 mm | - | - | - |
* Rain since midnight (hover to see other rain measurements)
** Current wind speed in m/s (hover to see current wind gust speed)